createdAt,value
2022-11-28T00:00:09.131Z,29.92
2022-11-28T00:02:41.380Z,25.88
2022-11-28T00:05:12.958Z,30.25
2022-11-28T00:07:43.010Z,24.95
2022-11-28T00:10:12.969Z,28.48
2022-11-28T00:12:41.544Z,30.17
2022-11-28T00:15:13.245Z,30.33
2022-11-28T00:17:45.034Z,27.80
2022-11-28T00:20:14.626Z,30.13
2022-11-28T00:22:44.642Z,35.15
2022-11-28T00:25:13.481Z,29.17
2022-11-28T00:27:45.336Z,28.70
2022-11-28T00:30:19.831Z,27.63
2022-11-28T00:32:48.796Z,31.30
2022-11-28T00:35:17.687Z,30.83
2022-11-28T00:37:47.890Z,31.10
2022-11-28T00:40:17.213Z,26.65
2022-11-28T00:42:45.827Z,25.70
2022-11-28T00:45:14.666Z,27.20
2022-11-28T00:47:43.182Z,26.88
2022-11-28T00:50:12.069Z,39.17
2022-11-28T00:52:40.620Z,40.23
2022-11-28T00:55:10.981Z,42.90
2022-11-28T00:57:39.599Z,42.50
2022-11-28T01:00:10.379Z,29.13
2022-11-28T01:02:39.026Z,27.30
2022-11-28T01:05:08.652Z,26.13
2022-11-28T01:07:37.374Z,28.65
2022-11-28T01:10:07.387Z,26.08
2022-11-28T01:12:37.349Z,29.05
2022-11-28T01:15:07.026Z,33.67
2022-11-28T01:20:06.818Z,26.98
2022-11-28T01:22:35.445Z,35.28
2022-11-28T01:25:03.990Z,29.95
2022-11-28T01:27:32.530Z,29.02
2022-11-28T01:30:02.701Z,38.28
2022-11-28T01:32:31.431Z,33.65
2022-11-28T01:34:59.950Z,37.00
2022-11-28T01:37:30.810Z,36.38
2022-11-28T01:39:59.612Z,28.70
2022-11-28T01:42:28.110Z,29.55
2022-11-28T01:45:20.006Z,31.05
2022-11-28T01:47:49.399Z,28.08
2022-11-28T01:50:18.991Z,27.75
2022-11-28T01:52:51.475Z,28.45
2022-11-28T01:55:24.366Z,31.95
2022-11-28T01:57:56.363Z,30.83
2022-11-28T02:00:26.798Z,31.10
2022-11-28T02:03:01.956Z,30.48
2022-11-28T02:05:30.771Z,25.88
2022-11-28T02:07:59.330Z,31.90
2022-11-28T02:10:32.622Z,31.55
2022-11-28T02:13:19.186Z,28.10
2022-11-28T02:16:16.288Z,28.95
2022-11-28T02:18:58.542Z,28.63
2022-11-28T02:21:37.338Z,30.05
2022-11-28T02:24:45.781Z,31.15
2022-11-28T02:28:08.992Z,29.98
2022-11-28T02:30:48.069Z,28.17
2022-11-28T02:33:22.697Z,25.65
2022-11-28T02:35:59.092Z,28.25
2022-11-28T02:38:43.586Z,27.15
2022-11-28T02:41:20.110Z,25.73
2022-11-28T02:43:55.213Z,24.35
2022-11-28T02:46:30.298Z,25.13
2022-11-28T02:49:04.567Z,30.33
2022-11-28T02:51:38.177Z,27.40
2022-11-28T02:54:10.364Z,26.08
2022-11-28T02:56:39.109Z,29.02
2022-11-28T02:59:46.800Z,26.23
2022-11-28T03:02:19.889Z,24.00
2022-11-28T03:05:00.126Z,29.73
2022-11-28T03:07:42.306Z,26.08
2022-11-28T03:10:20.776Z,26.20
2022-11-28T03:12:59.185Z,26.05
2022-11-28T03:15:35.878Z,28.58
2022-11-28T03:18:11.705Z,29.38
2022-11-28T03:20:48.218Z,27.13
2022-11-28T03:23:19.789Z,25.70
2022-11-28T03:25:59.020Z,32.22
2022-11-28T03:28:38.178Z,27.67
2022-11-28T03:31:15.025Z,30.63
2022-11-28T03:33:48.613Z,23.35
2022-11-28T03:36:22.591Z,24.48
2022-11-28T03:38:57.669Z,25.77
2022-11-28T03:41:30.818Z,25.77
2022-11-28T03:44:01.929Z,27.25
2022-11-28T03:46:36.454Z,28.27
2022-11-28T03:49:09.525Z,25.58
2022-11-28T03:51:44.308Z,52.25
2022-11-28T03:54:17.595Z,57.58
2022-11-28T03:56:53.763Z,33.13
2022-11-28T03:59:27.789Z,39.78
2022-11-28T04:02:08.342Z,30.45
2022-11-28T04:04:50.439Z,30.52
2022-11-28T04:07:27.368Z,27.38
2022-11-28T04:10:03.930Z,32.35
2022-11-28T04:12:47.287Z,31.67
2022-11-28T04:15:21.995Z,28.17
2022-11-28T04:17:55.724Z,29.02
2022-11-28T04:20:31.737Z,27.30
2022-11-28T04:23:07.347Z,48.47
2022-11-28T04:25:39.434Z,39.03
2022-11-28T04:28:12.977Z,34.60
2022-11-28T04:30:45.268Z,30.08
2022-11-28T04:33:15.679Z,27.17
2022-11-28T04:35:50.509Z,24.75
2022-11-28T04:38:22.722Z,22.58
2022-11-28T04:40:54.904Z,25.70
2022-11-28T04:43:31.335Z,25.38
2022-11-28T04:46:05.869Z,23.95
2022-11-28T04:48:34.920Z,24.88
2022-11-28T04:51:15.501Z,25.45
2022-11-28T04:53:51.974Z,25.00
2022-11-28T04:56:25.098Z,24.35
2022-11-28T04:58:53.775Z,21.48
2022-11-28T05:01:26.840Z,21.95
2022-11-28T05:03:56.250Z,24.35
2022-11-28T05:06:29.544Z,23.42
2022-11-28T05:08:59.759Z,21.73
2022-11-28T05:11:29.108Z,22.92
2022-11-28T05:13:57.998Z,23.65
2022-11-28T05:16:26.772Z,22.52
2022-11-28T05:18:55.928Z,25.30
2022-11-28T05:21:24.631Z,21.85
2022-11-28T05:23:53.418Z,22.27
2022-11-28T05:26:23.960Z,24.90
2022-11-28T05:28:53.359Z,22.38
2022-11-28T05:31:22.811Z,23.15
2022-11-28T05:33:51.689Z,20.98
2022-11-28T05:36:20.294Z,19.88
2022-11-28T05:38:49.446Z,20.33
2022-11-28T05:41:24.249Z,22.05
2022-11-28T05:43:52.933Z,21.38
2022-11-28T05:46:21.910Z,25.92
2022-11-28T05:48:50.483Z,23.35
2022-11-28T05:51:21.222Z,25.33
2022-11-28T05:53:49.842Z,22.02
2022-11-28T05:56:20.717Z,23.13
2022-11-28T05:58:54.426Z,24.58
2022-11-28T06:01:25.168Z,19.35
2022-11-28T06:03:59.915Z,18.63
2022-11-28T06:06:30.481Z,20.65
2022-11-28T06:08:59.498Z,21.52
2022-11-28T06:11:30.415Z,18.10
2022-11-28T06:14:00.341Z,19.48
2022-11-28T06:16:30.884Z,19.42
2022-11-28T06:19:01.656Z,19.17
2022-11-28T06:21:31.438Z,17.92
2022-11-28T06:24:01.242Z,18.40
2022-11-28T06:29:00.085Z,22.25
2022-11-28T06:31:31.100Z,22.85
2022-11-28T06:34:00.095Z,21.77
2022-11-28T06:36:30.866Z,22.92
2022-11-28T06:38:59.605Z,20.98
2022-11-28T06:41:28.337Z,118.25
2022-11-28T06:43:57.535Z,98.53
2022-11-28T06:46:27.556Z,122.03
2022-11-28T06:48:56.322Z,128.25
2022-11-28T06:51:25.946Z,78.80
2022-11-28T06:53:55.948Z,76.30
2022-11-28T06:58:56.497Z,30.73
2022-11-28T07:01:28.209Z,24.77
2022-11-28T07:03:57.103Z,22.98
2022-11-28T07:06:27.524Z,21.27
2022-11-28T07:08:57.698Z,19.92
2022-11-28T07:11:28.098Z,24.20
2022-11-28T07:13:57.655Z,20.58
2022-11-28T07:16:29.299Z,19.05
2022-11-28T07:19:00.080Z,21.35
2022-11-28T07:21:29.917Z,20.58
2022-11-28T07:26:28.208Z,20.92
2022-11-28T07:28:58.394Z,24.83
2022-11-28T07:31:32.441Z,24.80
2022-11-28T07:34:04.386Z,24.13
2022-11-28T07:36:33.616Z,21.02
2022-11-28T07:39:05.571Z,23.55
2022-11-28T07:41:34.284Z,23.17
2022-11-28T07:44:04.183Z,22.30
2022-11-28T07:46:35.147Z,23.90
2022-11-28T07:49:06.043Z,24.42
2022-11-28T07:51:35.484Z,21.95
2022-11-28T07:54:04.928Z,26.25
2022-11-28T07:56:57.316Z,25.30
2022-11-28T07:59:23.953Z,42.58
2022-11-28T08:01:54.208Z,35.83
2022-11-28T08:04:23.176Z,28.50
2022-11-28T08:06:51.854Z,29.40
2022-11-28T08:09:20.612Z,27.10
2022-11-28T08:11:51.389Z,23.67
2022-11-28T08:14:19.918Z,23.08
2022-11-28T08:16:49.679Z,24.27
2022-11-28T08:21:53.603Z,22.98
2022-11-28T08:24:22.213Z,25.35
2022-11-28T08:26:50.784Z,24.25
2022-11-28T08:29:19.675Z,28.40
2022-11-28T08:31:48.721Z,27.07
2022-11-28T08:34:17.336Z,25.42
2022-11-28T08:36:49.149Z,22.10
2022-11-28T08:39:25.458Z,22.80
2022-11-28T08:41:57.341Z,23.48
2022-11-28T08:44:26.609Z,23.80
2022-11-28T08:46:55.423Z,26.52
2022-11-28T08:49:24.026Z,24.15
2022-11-28T08:51:53.954Z,24.58
2022-11-28T08:54:22.542Z,27.45
2022-11-28T08:56:51.112Z,24.25
2022-11-28T08:59:19.673Z,23.00
2022-11-28T09:01:48.275Z,23.70
2022-11-28T09:04:16.923Z,23.75
2022-11-28T09:06:45.454Z,23.55
2022-11-28T09:09:15.707Z,24.35
2022-11-28T09:11:44.742Z,28.55
2022-11-28T09:14:13.437Z,24.15
2022-11-28T09:16:42.751Z,23.92
2022-11-28T09:19:11.442Z,30.15
2022-11-28T09:21:40.744Z,23.58
2022-11-28T09:24:10.596Z,25.70
2022-11-28T09:29:09.038Z,24.67
2022-11-28T09:31:37.565Z,27.00
2022-11-28T09:34:06.055Z,27.35
2022-11-28T09:36:34.821Z,27.58
2022-11-28T09:39:04.856Z,28.43
2022-11-28T09:41:55.722Z,23.80
2022-11-28T09:44:27.849Z,30.52
2022-11-28T09:47:01.592Z,27.40
2022-11-28T09:49:41.106Z,28.70
2022-11-28T09:54:50.305Z,28.52
2022-11-28T09:57:27.602Z,26.65
2022-11-28T09:59:56.289Z,24.60
2022-11-28T10:02:32.088Z,25.52
2022-11-28T10:05:11.439Z,28.58
2022-11-28T10:07:54.673Z,25.80
2022-11-28T10:10:32.058Z,25.45
2022-11-28T10:13:05.004Z,26.17
2022-11-28T10:15:44.096Z,26.02
2022-11-28T10:18:27.422Z,22.90
2022-11-28T10:20:59.400Z,26.30
2022-11-28T10:23:31.574Z,24.80
2022-11-28T10:26:05.975Z,21.83
2022-11-28T10:28:40.014Z,23.13
2022-11-28T10:31:16.906Z,24.55
2022-11-28T10:33:49.943Z,23.58
2022-11-28T10:36:25.365Z,24.95
2022-11-28T10:38:54.343Z,25.75
2022-11-28T10:41:28.869Z,23.35
2022-11-28T10:44:04.511Z,24.35
2022-11-28T10:46:49.359Z,26.90
2022-11-28T10:49:43.594Z,23.73
2022-11-28T10:52:20.681Z,23.85
2022-11-28T10:55:12.790Z,27.80
2022-11-28T10:57:47.374Z,24.95
2022-11-28T11:00:19.629Z,25.00
2022-11-28T11:02:50.462Z,25.85
2022-11-28T11:05:21.956Z,22.70
2022-11-28T11:07:53.651Z,27.38
2022-11-28T11:10:27.158Z,28.42
2022-11-28T11:12:56.152Z,27.92
2022-11-28T11:15:32.627Z,23.17
2022-11-28T11:18:05.501Z,26.70
2022-11-28T11:20:37.549Z,25.83
2022-11-28T11:23:16.567Z,26.15
2022-11-28T11:25:52.307Z,27.05
2022-11-28T11:28:40.659Z,28.48
2022-11-28T11:31:24.710Z,26.10
2022-11-28T11:33:54.791Z,26.67
2022-11-28T11:36:29.322Z,27.83
2022-11-28T11:39:22.169Z,27.42
2022-11-28T11:41:52.101Z,28.92
2022-11-28T11:44:35.497Z,27.38
2022-11-28T11:47:07.898Z,24.95
2022-11-28T11:49:37.749Z,26.50
2022-11-28T11:54:35.483Z,29.23
2022-11-28T11:57:31.465Z,26.85
2022-11-28T11:59:57.161Z,24.35
2022-11-28T12:02:32.892Z,25.80
2022-11-28T12:05:06.709Z,22.40
2022-11-28T12:07:40.468Z,26.33
2022-11-28T12:10:16.489Z,26.92
2022-11-28T12:12:45.164Z,25.20
2022-11-28T12:15:18.396Z,24.13
2022-11-28T12:18:04.044Z,25.17
2022-11-28T12:20:43.183Z,23.25
2022-11-28T12:23:29.745Z,24.65
2022-11-28T12:26:04.894Z,25.73
2022-11-28T12:28:47.454Z,24.13
2022-11-28T12:31:22.935Z,24.00
2022-11-28T12:34:06.161Z,26.05
2022-11-28T12:36:38.673Z,26.33
2022-11-28T12:39:19.069Z,26.98
2022-11-28T12:42:19.885Z,24.13
2022-11-28T12:44:59.986Z,24.67
2022-11-28T12:47:41.629Z,24.60
2022-11-28T12:50:24.442Z,25.10
2022-11-28T12:53:03.690Z,25.13
2022-11-28T12:55:45.132Z,27.80
2022-11-28T12:58:22.160Z,24.92
2022-11-28T13:01:06.910Z,23.95
2022-11-28T13:03:43.936Z,23.60
2022-11-28T13:06:24.977Z,23.80
2022-11-28T13:09:16.735Z,24.67
2022-11-28T13:11:55.728Z,25.55
2022-11-28T13:14:38.044Z,25.07
2022-11-28T13:17:18.139Z,24.35
2022-11-28T13:19:53.455Z,24.10
2022-11-28T13:22:28.237Z,23.60
2022-11-28T13:25:01.947Z,23.92
2022-11-28T13:27:38.182Z,22.42
2022-11-28T13:30:21.103Z,23.70
2022-11-28T13:32:59.679Z,23.17
2022-11-28T13:35:29.894Z,23.13
2022-11-28T13:40:58.287Z,23.23
2022-11-28T13:43:33.294Z,22.42
2022-11-28T13:46:02.166Z,20.25
2022-11-28T13:51:45.574Z,23.23
2022-11-28T13:54:48.207Z,24.10
2022-11-28T13:57:28.179Z,22.55
2022-11-28T14:00:03.841Z,23.98
2022-11-28T14:02:46.155Z,23.83
2022-11-28T14:05:34.417Z,24.25
2022-11-28T14:08:04.416Z,25.98
2022-11-28T14:11:00.899Z,21.02
2022-11-28T14:13:45.088Z,23.48
2022-11-28T14:16:25.836Z,21.52
2022-11-28T14:19:23.938Z,24.75
2022-11-28T14:22:10.309Z,20.52
2022-11-28T14:24:50.996Z,21.60
2022-11-28T14:27:24.665Z,22.35
2022-11-28T14:29:57.205Z,25.17
2022-11-28T14:32:32.192Z,23.70
2022-11-28T14:35:02.173Z,21.75
2022-11-28T14:37:57.904Z,24.10
2022-11-28T14:41:06.459Z,25.38
2022-11-28T14:43:38.639Z,22.77
2022-11-28T14:46:30.162Z,23.55
2022-11-28T14:49:23.956Z,26.48
2022-11-28T14:52:38.598Z,22.50
2022-11-28T14:55:20.711Z,21.30
2022-11-28T14:57:59.283Z,19.88
2022-11-28T15:00:47.672Z,22.88
2022-11-28T15:03:27.163Z,20.15
2022-11-28T15:06:03.439Z,22.42
2022-11-28T15:08:54.409Z,23.27
2022-11-28T15:11:59.003Z,21.75
2022-11-28T15:14:31.753Z,23.77
2022-11-28T15:17:06.323Z,21.67
2022-11-28T15:19:39.308Z,23.90
2022-11-28T15:22:31.010Z,24.13
2022-11-28T15:25:01.091Z,21.58
2022-11-28T15:27:30.161Z,22.05
2022-11-28T15:30:04.454Z,24.23
2022-11-28T15:32:35.584Z,21.60
2022-11-28T15:35:12.280Z,26.58
2022-11-28T15:37:49.041Z,22.90
2022-11-28T15:40:22.950Z,24.40
2022-11-28T15:42:52.155Z,25.88
2022-11-28T15:45:26.413Z,23.33
2022-11-28T15:47:58.044Z,24.33
2022-11-28T15:50:29.977Z,24.58
2022-11-28T15:53:00.383Z,24.90
2022-11-28T15:55:33.057Z,22.90
2022-11-28T15:58:21.091Z,25.73
2022-11-28T16:01:00.237Z,25.85
2022-11-28T16:03:34.927Z,23.42
2022-11-28T16:06:05.933Z,23.77
2022-11-28T16:08:37.894Z,23.30
2022-11-28T16:11:08.969Z,23.25
2022-11-28T16:13:40.541Z,23.60
2022-11-28T16:16:13.995Z,23.92
2022-11-28T16:18:48.072Z,24.48
2022-11-28T16:21:17.265Z,32.03
2022-11-28T16:23:45.819Z,24.92
2022-11-28T16:26:30.050Z,31.55
2022-11-28T16:29:03.709Z,27.95
2022-11-28T16:31:32.516Z,22.17
2022-11-28T16:34:03.951Z,25.83
2022-11-28T16:36:36.907Z,25.15
2022-11-28T16:39:09.168Z,26.00
2022-11-28T16:41:38.684Z,25.25
2022-11-28T16:44:12.394Z,25.83
2022-11-28T16:46:42.644Z,23.77
2022-11-28T16:49:34.628Z,28.73
2022-11-28T16:52:42.456Z,24.92
2022-11-28T16:55:41.735Z,21.40
2022-11-28T16:58:13.811Z,22.38
2022-11-28T17:00:45.399Z,20.38
2022-11-28T17:03:48.728Z,25.10
2022-11-28T17:06:25.202Z,22.63
2022-11-28T17:08:54.833Z,26.38
2022-11-28T17:11:28.005Z,21.75
2022-11-28T17:13:57.865Z,26.98
2022-11-28T17:16:28.431Z,22.52
2022-11-28T17:21:33.225Z,23.65
2022-11-28T17:24:02.705Z,29.52
2022-11-28T17:26:31.863Z,24.13
2022-11-28T17:29:00.771Z,26.15
2022-11-28T17:31:30.614Z,27.53
2022-11-28T17:36:29.067Z,23.85
2022-11-28T17:39:02.296Z,24.67
2022-11-28T17:41:33.822Z,26.45
2022-11-28T17:44:02.929Z,25.20
2022-11-28T17:46:32.896Z,24.80
2022-11-28T17:49:01.532Z,33.43
2022-11-28T17:51:31.532Z,28.60
2022-11-28T17:54:00.080Z,27.75
2022-11-28T17:56:28.898Z,38.25
2022-11-28T17:58:57.389Z,29.20
2022-11-28T18:01:29.918Z,28.67
2022-11-28T18:04:01.139Z,68.30
2022-11-28T18:06:31.625Z,95.53
2022-11-28T18:09:01.528Z,78.38
2022-11-28T18:11:30.868Z,58.60
2022-11-28T18:13:59.841Z,46.15
2022-11-28T18:16:33.004Z,45.55
2022-11-28T18:19:02.031Z,31.40
2022-11-28T18:21:32.114Z,39.53
2022-11-28T18:24:00.945Z,28.92
2022-11-28T18:26:29.712Z,29.42
2022-11-28T18:29:00.492Z,30.90
2022-11-28T18:31:31.038Z,33.70
2022-11-28T18:34:05.078Z,32.83
2022-11-28T18:36:38.962Z,32.60
2022-11-28T18:39:10.189Z,34.58
2022-11-28T18:41:39.973Z,31.40
2022-11-28T18:44:11.064Z,30.52
2022-11-28T18:46:40.533Z,44.22
2022-11-28T18:49:09.211Z,37.30
2022-11-28T18:51:40.593Z,39.42
2022-11-28T18:54:12.450Z,27.80
2022-11-28T18:56:43.811Z,39.70
2022-11-28T18:59:13.686Z,33.85
2022-11-28T19:01:42.468Z,33.95
2022-11-28T19:04:15.640Z,29.77
2022-11-28T19:06:48.546Z,28.00
2022-11-28T19:09:18.739Z,26.88
2022-11-28T19:11:47.327Z,34.47
2022-11-28T19:14:17.577Z,39.33
2022-11-28T19:16:48.546Z,30.73
2022-11-28T19:19:18.712Z,27.40
2022-11-28T19:21:51.403Z,29.90
2022-11-28T19:24:20.005Z,27.05
2022-11-28T19:26:48.745Z,29.33
2022-11-28T19:29:17.751Z,29.48
2022-11-28T19:31:46.402Z,30.77
2022-11-28T19:34:17.428Z,41.90
2022-11-28T19:36:49.222Z,31.98
2022-11-28T19:39:22.252Z,27.17
2022-11-28T19:41:52.140Z,29.52
2022-11-28T19:44:24.018Z,25.92
2022-11-28T19:46:53.591Z,28.20
2022-11-28T19:49:24.013Z,29.45
2022-11-28T19:51:54.448Z,25.30
2022-11-28T19:54:24.475Z,26.75
2022-11-28T19:56:56.042Z,24.40
2022-11-28T19:59:24.943Z,28.35
2022-11-28T20:01:53.977Z,25.27
2022-11-28T20:04:23.821Z,27.65
2022-11-28T20:06:52.418Z,25.88
2022-11-28T20:09:21.029Z,25.85
2022-11-28T20:11:51.153Z,36.08
2022-11-28T20:14:20.894Z,28.30
2022-11-28T20:19:18.462Z,26.80
2022-11-28T20:21:47.461Z,32.28
2022-11-28T20:24:16.810Z,27.80
2022-11-28T20:26:47.457Z,25.38
2022-11-28T20:29:19.138Z,23.88
2022-11-28T20:31:50.161Z,27.20
2022-11-28T20:34:20.113Z,24.45
2022-11-28T20:36:56.509Z,27.35
2022-11-28T20:39:25.325Z,26.77
2022-11-28T20:41:53.829Z,25.10
2022-11-28T20:44:24.066Z,25.92
2022-11-28T20:46:52.747Z,27.75
2022-11-28T20:49:21.521Z,32.17
2022-11-28T20:51:50.474Z,27.20
2022-11-28T20:54:19.476Z,27.38
2022-11-28T20:59:38.135Z,23.23
2022-11-28T21:02:06.780Z,28.45
2022-11-28T21:04:35.367Z,26.50
2022-11-28T21:07:03.897Z,23.25
2022-11-28T21:09:32.517Z,25.90
2022-11-28T21:12:01.986Z,26.77
2022-11-28T21:14:30.665Z,26.20
2022-11-28T21:17:01.438Z,30.77
2022-11-28T21:19:30.050Z,25.30
2022-11-28T21:21:58.510Z,26.17
2022-11-28T21:24:28.583Z,21.17
2022-11-28T21:26:57.123Z,22.73
2022-11-28T21:29:26.278Z,18.60
2022-11-28T21:31:55.321Z,21.90
2022-11-28T21:34:25.296Z,21.60
2022-11-28T21:36:55.370Z,19.33
2022-11-28T21:39:24.015Z,23.30
2022-11-28T21:41:52.703Z,21.88
2022-11-28T21:44:21.316Z,20.63
2022-11-28T21:46:50.896Z,22.10
2022-11-28T21:49:19.669Z,21.75
2022-11-28T21:51:50.042Z,18.98
2022-11-28T21:54:18.624Z,21.23
2022-11-28T21:56:47.317Z,20.60
2022-11-28T21:59:16.615Z,21.90
2022-11-28T22:01:46.160Z,20.15
2022-11-28T22:04:14.718Z,24.30
2022-11-28T22:06:43.642Z,18.45
2022-11-28T22:09:13.541Z,21.20
2022-11-28T22:11:42.228Z,23.88
2022-11-28T22:14:10.864Z,18.57
2022-11-28T22:16:39.782Z,22.23
2022-11-28T22:19:08.515Z,21.55
2022-11-28T22:21:54.767Z,21.58
2022-11-28T22:24:26.161Z,21.90
2022-11-28T22:26:56.868Z,21.95
2022-11-28T22:29:25.911Z,21.80
2022-11-28T22:31:55.639Z,26.38
2022-11-28T22:34:25.087Z,29.85
2022-11-28T22:36:53.967Z,24.25
2022-11-28T22:39:23.577Z,35.58
2022-11-28T22:41:53.694Z,24.65
2022-11-28T22:44:22.550Z,25.25
2022-11-28T22:46:51.430Z,25.17
2022-11-28T22:49:20.567Z,32.40
2022-11-28T22:51:49.333Z,31.70
2022-11-28T22:54:18.540Z,25.67
2022-11-28T22:56:47.264Z,26.55
2022-11-28T22:59:18.145Z,24.92
2022-11-28T23:01:46.869Z,23.60
2022-11-28T23:04:16.298Z,24.73
2022-11-28T23:06:45.359Z,24.67
2022-11-28T23:09:15.692Z,22.23
2022-11-28T23:11:46.412Z,24.02
2022-11-28T23:16:46.735Z,26.65
2022-11-28T23:19:17.567Z,20.73
2022-11-28T23:21:48.563Z,23.95
2022-11-28T23:24:19.126Z,22.58
2022-11-28T23:26:48.919Z,23.48
2022-11-28T23:29:20.370Z,28.88
2022-11-28T23:31:50.868Z,24.60
2022-11-28T23:34:19.689Z,23.67
2022-11-28T23:39:19.359Z,24.10
2022-11-28T23:41:48.804Z,21.88
2022-11-28T23:44:20.219Z,24.33
2022-11-28T23:46:49.531Z,22.67
2022-11-28T23:49:18.531Z,21.92
2022-11-28T23:51:47.319Z,23.38
2022-11-28T23:54:16.794Z,22.45
2022-11-28T23:59:17.237Z,23.75
